Time;durP1;ratioP1;P1;durP2;ratioP2;P2;SDS_P1;SDS_P2;PMS_P1;PMS_P2;Temp;Humidity;BMP_temperature;BMP_pressure;BME280_temperature;BME280_humidity;BME280_pressure;Samples;Min_cycle;Max_cycle;Signal;HPM_P1;HPM_P2
2024/02/29 00:01:28;;;;;;;13.10;5.38;;;7.50;99.90;;;;;;5060030;28;20036;-74
2024/02/29 00:03:54;;;;;;;11.85;5.85;;;7.50;99.90;;;;;;5060733;28;20494;-75
2024/02/29 00:06:20;;;;;;;14.48;5.78;;;7.50;99.90;;;;;;5048048;28;20036;-74
2024/02/29 00:08:46;;;;;;;15.65;5.20;;;7.50;99.90;;;;;;5066406;28;20059;-72
2024/02/29 00:11:12;;;;;;;11.15;5.45;;;7.50;99.90;;;;;;5064795;28;20040;-74
2024/02/29 00:13:37;;;;;;;12.57;5.60;;;7.50;99.90;;;;;;5039773;28;20032;-74
2024/02/29 00:16:03;;;;;;;12.77;5.68;;;7.50;99.90;;;;;;5039435;28;20027;-75
2024/02/29 00:18:28;;;;;;;18.38;5.80;;;7.50;99.90;;;;;;5060867;28;20044;-75
2024/02/29 00:20:54;;;;;;;15.35;5.95;;;7.40;99.90;;;;;;5064920;28;20032;-73
2024/02/29 00:23:19;;;;;;;12.65;5.50;;;7.40;99.90;;;;;;5061296;28;20509;-75
2024/02/29 00:25:45;;;;;;;9.82;4.95;;;7.40;99.90;;;;;;5044964;28;20186;-74
2024/02/29 00:28:11;;;;;;;14.05;5.57;;;7.30;99.90;;;;;;5043708;28;20116;-74
2024/02/29 00:30:36;;;;;;;10.50;4.90;;;7.30;99.90;;;;;;5065981;28;20406;-74
2024/02/29 00:33:03;;;;;;;16.60;6.82;;;7.30;99.90;;;;;;5060916;28;20036;-75
2024/02/29 00:35:31;;;;;;;13.15;5.78;;;7.20;99.90;;;;;;5056169;28;20032;-75
2024/02/29 00:37:56;;;;;;;15.50;5.88;;;7.30;99.90;;;;;;5045572;28;20033;-75
2024/02/29 00:40:22;;;;;;;14.70;6.03;;;7.20;99.90;;;;;;5043705;28;20029;-75
2024/02/29 00:42:47;;;;;;;18.75;5.90;;;7.20;99.90;;;;;;5057790;28;20436;-74
2024/02/29 00:45:13;;;;;;;16.95;7.22;;;7.20;99.90;;;;;;5039333;28;20497;-74
2024/02/29 00:47:38;;;;;;;13.10;5.35;;;7.30;99.90;;;;;;5055484;28;20709;-75
2024/02/29 00:50:04;;;;;;;14.07;5.75;;;7.30;99.90;;;;;;5056398;28;20043;-77
2024/02/29 00:52:30;;;;;;;14.38;5.82;;;7.30;99.90;;;;;;5046688;28;20067;-75
2024/02/29 00:54:56;;;;;;;12.57;5.22;;;7.30;99.90;;;;;;5053444;28;20041;-75
2024/02/29 00:57:22;;;;;;;13.38;4.80;;;7.30;99.90;;;;;;5058263;28;20039;-74
2024/02/29 00:59:47;;;;;;;15.32;5.38;;;7.40;99.90;;;;;;5059058;28;20116;-75
2024/02/29 01:02:13;;;;;;;14.70;5.85;;;7.40;99.90;;;;;;5054470;28;20036;-75
2024/02/29 01:04:38;;;;;;;12.93;5.47;;;7.40;99.90;;;;;;5044386;28;20033;-75
2024/02/29 01:07:04;;;;;;;11.52;5.55;;;7.40;99.90;;;;;;5057286;28;20060;-75
2024/02/29 01:09:29;;;;;;;12.15;5.65;;;7.40;99.90;;;;;;5057494;28;20040;-75
2024/02/29 01:11:55;;;;;;;15.90;6.00;;;7.30;99.90;;;;;;5043547;28;20045;-75
2024/02/29 01:14:21;;;;;;;12.77;5.25;;;7.30;99.90;;;;;;5056533;28;20028;-74
2024/02/29 01:16:46;;;;;;;11.10;4.93;;;7.30;99.90;;;;;;5056506;28;20780;-73
2024/02/29 01:19:12;;;;;;;15.68;6.28;;;7.30;99.90;;;;;;5058477;28;20039;-75
2024/02/29 01:21:38;;;;;;;12.52;5.95;;;7.30;99.90;;;;;;5043753;28;20029;-75
2024/02/29 01:24:05;;;;;;;15.30;6.60;;;7.30;99.90;;;;;;5058376;28;20125;-75
2024/02/29 01:26:32;;;;;;;20.80;6.68;;;7.30;99.90;;;;;;5059878;28;20124;-74
2024/02/29 01:28:58;;;;;;;17.20;5.82;;;7.30;99.90;;;;;;5042937;28;20033;-75
2024/02/29 01:31:23;;;;;;;16.55;5.28;;;7.30;99.90;;;;;;5050771;28;20535;-74
2024/02/29 01:33:49;;;;;;;14.70;5.30;;;7.20;99.90;;;;;;5060248;28;20043;-75
2024/02/29 01:36:14;;;;;;;15.57;6.53;;;7.30;99.90;;;;;;5048293;28;20036;-74
2024/02/29 01:38:40;;;;;;;10.88;5.40;;;7.20;99.90;;;;;;5050528;28;20508;-73
2024/02/29 01:41:06;;;;;;;12.32;6.03;;;7.30;99.90;;;;;;5045732;28;20033;-74
2024/02/29 01:43:31;;;;;;;15.18;6.00;;;7.30;99.90;;;;;;5058762;28;20028;-74
2024/02/29 01:46:14;;;;;;;19.23;6.32;;;7.30;99.90;;;;;;5062278;28;20444;-74
2024/02/29 01:48:40;;;;;;;14.13;5.40;;;7.30;99.90;;;;;;5060691;28;20029;-73
2024/02/29 01:51:08;;;;;;;11.88;5.40;;;7.40;99.90;;;;;;5035604;28;20072;-75
2024/02/29 01:53:34;;;;;;;14.60;5.68;;;7.40;99.90;;;;;;5045212;28;20049;-75
2024/02/29 01:56:00;;;;;;;13.70;5.20;;;7.40;99.90;;;;;;5048446;28;20060;-75
2024/02/29 01:58:26;;;;;;;25.45;6.75;;;7.40;99.90;;;;;;5059843;28;20033;-75
2024/02/29 02:00:52;;;;;;;14.35;5.70;;;7.40;99.90;;;;;;5061333;28;20029;-75
2024/02/29 02:03:18;;;;;;;15.60;5.32;;;7.40;99.90;;;;;;5062499;28;20031;-74
2024/02/29 02:05:43;;;;;;;10.82;5.03;;;7.50;99.90;;;;;;5048400;28;20037;-72
2024/02/29 02:08:10;;;;;;;11.02;5.20;;;7.40;99.90;;;;;;5063557;28;21712;-74
2024/02/29 02:10:36;;;;;;;14.07;5.15;;;7.40;99.90;;;;;;5057089;28;20067;-75
2024/02/29 02:13:02;;;;;;;15.70;5.80;;;7.40;99.90;;;;;;5049325;28;20425;-74
2024/02/29 02:15:28;;;;;;;13.95;5.13;;;7.50;99.90;;;;;;5064845;28;20044;-74
2024/02/29 02:17:53;;;;;;;17.75;5.68;;;7.60;99.90;;;;;;5062392;28;20040;-74
2024/02/29 02:20:19;;;;;;;14.50;5.45;;;7.50;99.90;;;;;;5064790;28;20051;-75
2024/02/29 02:22:45;;;;;;;14.50;5.95;;;7.60;99.90;;;;;;5057235;28;20067;-75
2024/02/29 02:25:10;;;;;;;15.88;6.47;;;7.60;99.90;;;;;;5061723;28;20033;-75
2024/02/29 02:27:39;;;;;;;19.55;5.57;;;7.60;99.90;;;;;;5048967;28;20056;-74
2024/02/29 02:30:07;;;;;;;14.63;5.88;;;7.60;99.90;;;;;;5060343;28;20120;-74
2024/02/29 02:32:33;;;;;;;17.55;5.72;;;7.60;99.90;;;;;;5049311;28;20534;-75
2024/02/29 02:35:00;;;;;;;13.98;5.75;;;7.60;99.90;;;;;;5058777;28;20036;-75
2024/02/29 02:37:25;;;;;;;17.52;5.80;;;7.60;99.90;;;;;;5065021;28;20509;-74
2024/02/29 02:39:51;;;;;;;20.15;6.82;;;7.60;99.90;;;;;;5042831;28;20033;-74
2024/02/29 02:42:16;;;;;;;13.25;5.97;;;7.70;99.90;;;;;;5065157;28;20036;-74
2024/02/29 02:44:42;;;;;;;14.68;4.97;;;7.60;99.90;;;;;;5065008;28;20044;-76
2024/02/29 02:47:07;;;;;;;18.08;7.28;;;7.60;99.90;;;;;;5058009;28;20024;-74
2024/02/29 02:49:33;;;;;;;15.65;6.25;;;7.60;99.90;;;;;;5061248;28;20032;-74
2024/02/29 02:51:58;;;;;;;14.63;5.57;;;7.60;99.90;;;;;;5063125;28;20044;-75
2024/02/29 02:54:24;;;;;;;14.02;5.90;;;7.60;99.90;;;;;;5062861;28;20035;-74
2024/02/29 02:56:49;;;;;;;13.07;5.25;;;7.70;99.90;;;;;;5058315;28;20119;-73
2024/02/29 02:59:15;;;;;;;14.75;5.38;;;7.70;99.90;;;;;;5064877;28;20151;-74
2024/02/29 03:01:40;;;;;;;12.75;6.10;;;7.70;99.90;;;;;;5064308;28;20041;-76
2024/02/29 03:04:06;;;;;;;19.83;5.15;;;7.60;99.90;;;;;;5064305;28;20040;-74
2024/02/29 03:06:31;;;;;;;14.95;5.85;;;7.60;99.90;;;;;;5046457;28;20063;-73
2024/02/29 03:08:57;;;;;;;17.02;6.57;;;7.60;99.90;;;;;;5064479;28;20043;-75
2024/02/29 03:11:22;;;;;;;17.50;6.15;;;7.60;99.90;;;;;;5065731;28;20606;-73
2024/02/29 03:13:48;;;;;;;14.77;5.88;;;7.60;99.90;;;;;;5064710;28;20497;-74
2024/02/29 03:16:22;;;;;;;18.77;6.35;;;7.50;99.90;;;;;;5064762;28;20059;-74
2024/02/29 03:18:47;;;;;;;18.15;6.25;;;7.50;99.90;;;;;;5048463;28;20032;-75
2024/02/29 03:21:14;;;;;;;16.98;6.53;;;7.40;99.90;;;;;;5064758;28;20040;-74
2024/02/29 03:23:40;;;;;;;18.95;6.57;;;7.30;99.90;;;;;;5063136;28;20044;-74
2024/02/29 03:26:05;;;;;;;19.48;6.55;;;7.30;99.90;;;;;;5064935;28;20029;-76
2024/02/29 03:28:31;;;;;;;16.75;6.97;;;7.30;99.90;;;;;;5066319;28;20040;-74
2024/02/29 03:30:58;;;;;;;19.95;7.15;;;7.20;99.90;;;;;;5057744;28;20028;-74
2024/02/29 03:33:23;;;;;;;18.13;6.93;;;7.30;99.90;;;;;;5063715;28;20040;-74
2024/02/29 03:35:49;;;;;;;23.52;7.60;;;7.20;99.90;;;;;;5067318;28;20798;-74
2024/02/29 03:38:16;;;;;;;15.50;6.78;;;7.20;99.90;;;;;;5067050;28;20037;-75
2024/02/29 03:40:42;;;;;;;20.45;7.20;;;7.20;99.90;;;;;;5065964;28;20133;-75
2024/02/29 03:43:08;;;;;;;17.27;6.43;;;7.20;99.90;;;;;;5061705;28;20089;-74
2024/02/29 03:45:33;;;;;;;22.30;7.32;;;7.20;99.90;;;;;;5048707;28;20025;-73
2024/02/29 03:47:59;;;;;;;16.90;6.38;;;7.20;99.90;;;;;;5043765;28;20028;-74
2024/02/29 03:50:26;;;;;;;15.27;7.20;;;7.10;99.90;;;;;;5066537;28;20037;-74
2024/02/29 03:52:51;;;;;;;22.85;7.72;;;7.10;99.90;;;;;;5064693;28;20510;-74
2024/02/29 03:55:17;;;;;;;19.73;7.18;;;7.10;99.90;;;;;;5062532;28;20075;-74
2024/02/29 03:57:43;;;;;;;19.27;6.80;;;7.20;99.90;;;;;;5047335;28;20402;-74
2024/02/29 04:00:13;;;;;;;19.98;8.07;;;7.10;99.90;;;;;;5054802;28;20124;-73
2024/02/29 04:02:39;;;;;;;14.98;7.43;;;7.10;99.90;;;;;;5056891;28;20060;-75
2024/02/29 04:05:06;;;;;;;19.35;7.65;;;7.10;99.90;;;;;;5055124;28;20045;-74
2024/02/29 04:07:31;;;;;;;16.98;6.80;;;7.10;99.90;;;;;;5059442;28;20083;-76
2024/02/29 04:09:57;;;;;;;20.65;7.93;;;7.10;99.90;;;;;;5044713;28;20106;-75
2024/02/29 04:12:22;;;;;;;23.80;7.47;;;7.10;99.90;;;;;;5058525;28;20518;-73
2024/02/29 04:14:48;;;;;;;15.35;6.70;;;7.10;99.90;;;;;;5061825;28;20043;-75
2024/02/29 04:17:13;;;;;;;17.58;7.47;;;7.10;99.90;;;;;;5058993;28;20119;-73
2024/02/29 04:19:41;;;;;;;17.85;7.30;;;7.00;99.90;;;;;;5056335;28;20601;-74
2024/02/29 04:22:07;;;;;;;17.58;7.18;;;7.10;99.90;;;;;;5043849;28;20035;-73
2024/02/29 04:24:32;;;;;;;19.48;7.47;;;7.10;99.90;;;;;;5048485;28;20074;-74
2024/02/29 04:26:58;;;;;;;17.05;7.55;;;7.10;99.90;;;;;;5055685;28;20043;-73
2024/02/29 04:29:23;;;;;;;14.57;6.57;;;7.10;99.90;;;;;;5058967;28;20051;-74
2024/02/29 04:31:49;;;;;;;19.95;6.57;;;7.10;99.90;;;;;;5053630;28;20028;-74
2024/02/29 04:34:15;;;;;;;19.23;6.63;;;7.10;99.90;;;;;;5046489;28;20040;-73
2024/02/29 04:36:41;;;;;;;19.25;7.55;;;7.00;99.90;;;;;;5059332;28;20029;-76
2024/02/29 04:39:06;;;;;;;21.05;8.32;;;7.00;99.90;;;;;;5054642;28;20041;-74
2024/02/29 04:41:32;;;;;;;24.55;7.63;;;7.00;99.90;;;;;;5059885;28;20036;-74
2024/02/29 04:43:57;;;;;;;20.40;7.90;;;7.00;99.90;;;;;;5056279;28;20379;-74
2024/02/29 04:46:23;;;;;;;19.98;7.35;;;7.00;99.90;;;;;;5059718;28;20045;-75
2024/02/29 04:48:48;;;;;;;18.23;7.35;;;7.00;99.90;;;;;;5046687;28;20028;-73
2024/02/29 04:51:14;;;;;;;21.27;8.15;;;7.00;99.90;;;;;;5057965;28;20103;-73
2024/02/29 04:53:40;;;;;;;16.63;7.13;;;7.00;99.90;;;;;;5046104;28;20060;-72
2024/02/29 04:56:06;;;;;;;22.38;7.40;;;7.00;99.90;;;;;;5056924;28;20056;-73
2024/02/29 04:58:32;;;;;;;19.25;8.40;;;7.10;99.90;;;;;;5048183;28;20032;-74
2024/02/29 05:00:58;;;;;;;18.45;8.52;;;7.00;99.90;;;;;;5046738;28;20043;-74
2024/02/29 05:03:24;;;;;;;18.77;7.60;;;7.00;99.90;;;;;;5060275;28;20059;-73
2024/02/29 05:05:49;;;;;;;18.40;7.88;;;7.00;99.90;;;;;;5063738;28;20056;-74
2024/02/29 05:08:15;;;;;;;19.45;7.75;;;7.00;99.90;;;;;;5062366;28;20422;-74
2024/02/29 05:10:40;;;;;;;18.45;7.93;;;7.00;99.90;;;;;;5064792;28;20060;-75
2024/02/29 05:13:06;;;;;;;23.88;8.80;;;7.10;99.90;;;;;;5062743;28;20459;-74
2024/02/29 05:15:31;;;;;;;16.75;7.60;;;7.00;99.90;;;;;;5061947;28;20501;-74
2024/02/29 05:17:58;;;;;;;20.00;8.52;;;7.10;99.90;;;;;;5061639;28;20040;-73
2024/02/29 05:20:23;;;;;;;17.88;7.18;;;7.00;99.90;;;;;;5057610;28;20037;-74
2024/02/29 05:22:53;;;;;;;20.35;7.05;;;7.00;99.90;;;;;;5061918;28;20043;-75
2024/02/29 05:25:19;;;;;;;16.53;6.83;;;7.10;99.90;;;;;;5047168;28;20041;-73
2024/02/29 05:27:45;;;;;;;20.30;8.10;;;7.10;99.90;;;;;;5043765;28;20498;-74
2024/02/29 05:30:11;;;;;;;25.52;7.25;;;7.10;99.90;;;;;;5043043;28;20091;-74
2024/02/29 05:32:37;;;;;;;19.55;7.18;;;7.10;99.90;;;;;;5042811;28;20086;-74
2024/02/29 05:35:03;;;;;;;19.77;7.88;;;7.10;99.90;;;;;;5044053;28;20041;-73
2024/02/29 05:37:29;;;;;;;16.98;7.60;;;7.10;99.90;;;;;;5043240;28;20033;-74
2024/02/29 05:39:58;;;;;;;20.23;7.50;;;7.10;99.90;;;;;;5040594;28;20029;-74
2024/02/29 05:42:26;;;;;;;18.15;6.70;;;7.10;99.90;;;;;;5041880;28;20455;-74
2024/02/29 05:44:52;;;;;;;20.73;8.02;;;7.20;99.90;;;;;;5041839;28;20067;-74
2024/02/29 05:47:17;;;;;;;20.17;7.13;;;7.20;99.90;;;;;;5045611;28;20029;-75
2024/02/29 05:49:43;;;;;;;19.60;7.47;;;7.10;99.90;;;;;;5045027;28;20064;-75
2024/02/29 05:52:09;;;;;;;16.95;6.90;;;7.20;99.90;;;;;;5042449;28;20043;-76
2024/02/29 05:54:34;;;;;;;22.10;7.88;;;7.20;99.90;;;;;;5044285;28;20029;-74
2024/02/29 05:57:00;;;;;;;21.80;7.05;;;7.30;99.90;;;;;;5041909;28;20030;-74
2024/02/29 05:59:25;;;;;;;17.65;7.60;;;7.20;99.90;;;;;;5043076;28;20044;-74
2024/02/29 06:01:51;;;;;;;16.67;6.75;;;7.20;99.90;;;;;;5043647;28;20037;-75
2024/02/29 06:04:17;;;;;;;19.42;7.63;;;7.20;99.90;;;;;;5040787;28;20186;-74
2024/02/29 06:06:43;;;;;;;18.38;7.43;;;7.30;99.90;;;;;;5039832;28;20506;-74
2024/02/29 06:09:14;;;;;;;20.27;7.05;;;7.30;99.90;;;;;;5042811;28;20041;-74
2024/02/29 06:11:40;;;;;;;22.15;7.10;;;7.40;99.90;;;;;;5041726;28;20071;-74
2024/02/29 06:14:06;;;;;;;17.23;6.43;;;7.30;99.90;;;;;;5041514;28;20611;-74
2024/02/29 06:16:32;;;;;;;17.08;7.25;;;7.30;99.90;;;;;;5041182;28;20048;-73
2024/02/29 06:18:57;;;;;;;22.08;7.65;;;7.30;99.90;;;;;;5038677;28;20048;-74
2024/02/29 06:21:23;;;;;;;17.27;6.63;;;7.40;99.90;;;;;;5041999;28;20472;-74
2024/02/29 06:23:48;;;;;;;15.80;7.30;;;7.40;99.90;;;;;;5046180;28;20494;-74
2024/02/29 06:26:14;;;;;;;14.45;6.53;;;7.40;99.90;;;;;;5045068;28;20528;-76
2024/02/29 06:28:40;;;;;;;14.02;6.95;;;7.40;99.90;;;;;;5047110;28;20120;-73
2024/02/29 06:31:08;;;;;;;16.63;6.32;;;7.40;99.90;;;;;;5044350;28;20032;-74
2024/02/29 06:33:34;;;;;;;18.95;6.95;;;7.40;99.90;;;;;;5046780;28;20048;-73
2024/02/29 06:36:02;;;;;;;17.85;6.90;;;7.40;99.90;;;;;;5039492;28;20033;-74
2024/02/29 06:38:27;;;;;;;16.67;6.65;;;7.40;99.90;;;;;;5040297;28;20037;-74
2024/02/29 06:40:53;;;;;;;16.52;6.90;;;7.40;99.90;;;;;;5041023;28;20048;-76
2024/02/29 06:43:18;;;;;;;14.95;6.47;;;7.40;99.90;;;;;;5041861;28;20037;-74
2024/02/29 06:45:51;;;;;;;17.08;6.72;;;7.40;99.90;;;;;;5047320;28;20118;-73
2024/02/29 06:48:18;;;;;;;16.95;6.45;;;7.40;99.90;;;;;;5044424;28;20025;-75
2024/02/29 06:50:45;;;;;;;19.42;7.85;;;7.50;99.90;;;;;;5047834;28;20033;-74
2024/02/29 06:53:10;;;;;;;19.27;7.90;;;7.40;99.90;;;;;;5042836;28;20118;-74
2024/02/29 06:55:36;;;;;;;17.10;6.85;;;7.40;99.90;;;;;;5047200;28;20510;-74
2024/02/29 06:58:05;;;;;;;19.13;7.10;;;7.50;99.90;;;;;;5042494;28;20049;-75
2024/02/29 07:00:31;;;;;;;15.95;6.25;;;7.50;99.90;;;;;;5040820;28;20037;-76
2024/02/29 07:02:57;;;;;;;17.90;6.28;;;7.50;99.90;;;;;;5036632;28;20061;-74
2024/02/29 07:05:22;;;;;;;17.45;7.07;;;7.50;99.90;;;;;;5043056;28;20056;-74
2024/02/29 07:07:52;;;;;;;21.88;7.03;;;7.50;99.90;;;;;;5047736;28;20060;-74
2024/02/29 07:10:19;;;;;;;11.35;4.95;;;7.50;99.90;;;;;;5044606;28;20120;-76
2024/02/29 07:12:45;;;;;;;14.73;7.00;;;7.50;99.90;;;;;;5047947;28;20477;-74
2024/02/29 07:15:11;;;;;;;15.77;6.22;;;7.60;99.90;;;;;;5046862;28;20037;-74
2024/02/29 07:17:37;;;;;;;17.48;6.45;;;7.60;99.90;;;;;;5048380;28;20041;-80
2024/02/29 07:20:04;;;;;;;12.38;5.80;;;7.60;99.90;;;;;;5030009;28;20095;-73
2024/02/29 07:22:30;;;;;;;14.38;6.22;;;7.60;99.90;;;;;;5025901;28;20040;-75
2024/02/29 07:24:55;;;;;;;14.85;5.35;;;7.60;99.90;;;;;;5042781;28;20032;-74
2024/02/29 07:27:21;;;;;;;16.30;5.80;;;7.70;99.90;;;;;;5048495;28;20033;-76
2024/02/29 07:29:47;;;;;;;13.13;6.10;;;7.60;99.90;;;;;;5049345;28;20383;-72
2024/02/29 07:32:13;;;;;;;15.15;5.97;;;7.70;99.90;;;;;;5047749;28;20045;-74
2024/02/29 07:34:39;;;;;;;14.15;6.05;;;7.70;99.90;;;;;;5047133;28;20097;-74
2024/02/29 07:37:04;;;;;;;17.55;6.53;;;7.70;99.90;;;;;;5027486;28;20063;-75
2024/02/29 07:39:30;;;;;;;17.25;5.82;;;7.70;99.90;;;;;;5045151;28;20045;-74
2024/02/29 07:41:55;;;;;;;15.50;6.00;;;7.70;99.90;;;;;;5035071;28;20024;-73
2024/02/29 07:44:21;;;;;;;18.52;6.00;;;7.70;99.90;;;;;;5047190;28;20089;-74
2024/02/29 07:46:47;;;;;;;17.20;6.65;;;7.70;99.90;;;;;;5057828;28;20120;-73
2024/02/29 07:49:13;;;;;;;17.23;6.45;;;7.70;99.90;;;;;;5055616;28;20089;-75
2024/02/29 07:51:38;;;;;;;15.25;6.53;;;7.70;99.90;;;;;;5047940;28;20504;-76
2024/02/29 07:54:04;;;;;;;12.85;5.85;;;7.70;99.90;;;;;;5056530;28;20044;-74
2024/02/29 07:56:30;;;;;;;14.80;6.43;;;7.80;99.90;;;;;;5057134;28;20502;-73
2024/02/29 07:58:55;;;;;;;16.00;6.90;;;7.70;99.90;;;;;;5057773;28;20032;-73
2024/02/29 08:01:21;;;;;;;17.83;6.00;;;7.70;99.90;;;;;;5057689;28;20033;-74
2024/02/29 08:03:47;;;;;;;15.75;6.53;;;7.70;99.90;;;;;;5055708;28;20040;-71
2024/02/29 08:06:12;;;;;;;15.55;6.90;;;7.70;99.90;;;;;;5062055;28;20029;-74
2024/02/29 08:08:38;;;;;;;23.25;7.28;;;7.70;99.90;;;;;;5063555;28;20167;-75
2024/02/29 08:11:05;;;;;;;17.98;6.63;;;7.70;99.90;;;;;;5061416;28;20036;-75
2024/02/29 08:13:31;;;;;;;17.08;6.15;;;7.70;99.90;;;;;;5063370;28;20036;-74
2024/02/29 08:15:57;;;;;;;16.00;6.22;;;7.70;99.90;;;;;;5061207;28;20033;-74
2024/02/29 08:18:22;;;;;;;19.55;6.30;;;7.80;99.90;;;;;;5042294;28;20040;-75
2024/02/29 08:20:48;;;;;;;17.23;6.95;;;7.80;99.90;;;;;;5047572;28;20029;-75
2024/02/29 08:23:15;;;;;;;19.77;6.80;;;7.80;99.90;;;;;;5041124;28;20036;-74
2024/02/29 08:25:41;;;;;;;16.52;5.47;;;7.90;99.90;;;;;;5045045;28;20028;-74
2024/02/29 08:28:07;;;;;;;20.08;6.43;;;7.90;99.90;;;;;;5060377;28;20516;-74
2024/02/29 08:30:32;;;;;;;20.77;7.38;;;8.00;99.90;;;;;;5045445;28;20029;-75
2024/02/29 08:32:58;;;;;;;13.88;5.55;;;8.00;99.90;;;;;;5058931;28;20501;-73
2024/02/29 08:35:23;;;;;;;15.07;6.15;;;8.00;99.90;;;;;;5041440;28;20036;-75
2024/02/29 08:37:49;;;;;;;14.05;5.82;;;8.00;99.90;;;;;;5061954;28;20039;-75
2024/02/29 08:40:14;;;;;;;13.52;5.40;;;8.00;99.90;;;;;;5039190;28;20482;-75
2024/02/29 08:42:40;;;;;;;14.98;5.93;;;8.00;99.90;;;;;;5062172;28;20139;-73
2024/02/29 08:45:09;;;;;;;15.00;5.38;;;8.00;99.90;;;;;;5040536;28;20063;-76
2024/02/29 08:47:35;;;;;;;21.88;6.32;;;8.00;99.90;;;;;;5043632;28;20671;-74
2024/02/29 08:50:01;;;;;;;13.88;5.88;;;8.10;99.90;;;;;;5055331;28;20033;-75
2024/02/29 08:52:27;;;;;;;17.50;6.35;;;8.00;99.90;;;;;;5043972;28;20040;-75
2024/02/29 08:54:52;;;;;;;14.57;6.07;;;8.00;99.90;;;;;;5057359;28;20036;-75
2024/02/29 08:57:19;;;;;;;14.90;6.75;;;8.00;99.90;;;;;;5058037;28;20044;-75
2024/02/29 08:59:44;;;;;;;15.82;6.43;;;8.00;99.90;;;;;;5061321;28;20032;-74
2024/02/29 09:02:10;;;;;;;35.20;7.40;;;8.00;99.90;;;;;;5058654;28;20098;-76
2024/02/29 09:04:35;;;;;;;16.70;6.40;;;8.00;99.90;;;;;;5065123;28;20090;-73
2024/02/29 09:07:02;;;;;;;21.38;5.95;;;8.00;99.90;;;;;;5060626;28;20024;-74
2024/02/29 09:09:28;;;;;;;14.23;6.50;;;8.10;99.90;;;;;;5060717;28;20033;-74
2024/02/29 09:11:54;;;;;;;16.83;5.70;;;8.10;99.90;;;;;;5046402;28;20052;-73
2024/02/29 09:14:20;;;;;;;16.73;6.47;;;8.10;99.90;;;;;;5060741;28;20449;-76
2024/02/29 09:16:46;;;;;;;11.73;5.43;;;8.10;99.90;;;;;;5043891;28;20128;-73
2024/02/29 09:19:11;;;;;;;15.80;5.68;;;8.10;99.90;;;;;;5059785;28;20044;-74
2024/02/29 09:21:37;;;;;;;13.90;5.20;;;8.10;99.90;;;;;;5061091;28;20449;-75
2024/02/29 09:24:03;;;;;;;14.52;5.85;;;8.10;99.90;;;;;;5057565;28;20033;-74
2024/02/29 09:26:28;;;;;;;13.00;5.50;;;8.10;99.90;;;;;;5058636;28;20044;-76
2024/02/29 09:28:54;;;;;;;13.73;5.28;;;8.10;99.90;;;;;;5060203;28;20036;-76
2024/02/29 09:31:20;;;;;;;14.13;5.80;;;8.10;99.90;;;;;;5056976;28;20037;-75
2024/02/29 09:33:46;;;;;;;13.52;5.40;;;8.20;99.90;;;;;;5059080;28;20021;-76
2024/02/29 09:36:13;;;;;;;16.52;6.38;;;8.20;99.90;;;;;;5059354;28;20049;-76
2024/02/29 09:38:39;;;;;;;16.40;5.88;;;8.20;99.90;;;;;;5055929;28;20037;-73
2024/02/29 09:41:05;;;;;;;12.20;4.97;;;8.20;99.90;;;;;;5059382;28;20040;-75
2024/02/29 09:43:31;;;;;;;13.95;5.68;;;8.20;99.90;;;;;;5058665;28;20032;-74
2024/02/29 09:46:02;;;;;;;16.05;6.00;;;8.20;99.90;;;;;;5040572;28;20115;-74
2024/02/29 09:48:29;;;;;;;19.25;5.82;;;8.20;99.90;;;;;;5062339;28;20040;-75
2024/02/29 09:51:01;;;;;;;13.38;5.05;;;8.20;99.90;;;;;;5065194;28;20119;-77
2024/02/29 09:53:28;;;;;;;12.68;5.75;;;8.20;99.90;;;;;;5062243;28;20812;-74
2024/02/29 09:55:55;;;;;;;15.23;5.88;;;8.20;99.90;;;;;;5063639;28;20035;-74
2024/02/29 09:58:21;;;;;;;14.10;6.35;;;8.20;99.90;;;;;;5061320;28;20037;-74
2024/02/29 10:00:48;;;;;;;13.98;5.88;;;8.30;99.90;;;;;;5062208;28;20039;-76
2024/02/29 10:03:19;;;;;;;15.48;5.78;;;8.20;99.90;;;;;;5061205;28;20447;-74
2024/02/29 10:05:45;;;;;;;14.10;5.70;;;8.20;99.90;;;;;;5067722;28;20071;-75
2024/02/29 10:08:11;;;;;;;14.82;6.05;;;8.20;99.90;;;;;;5065652;28;20123;-74
2024/02/29 10:10:38;;;;;;;14.63;5.88;;;8.20;99.90;;;;;;5050931;28;20116;-75
2024/02/29 10:13:05;;;;;;;15.85;6.03;;;8.30;99.90;;;;;;5062901;28;20581;-75
2024/02/29 10:15:30;;;;;;;16.98;6.72;;;8.30;99.90;;;;;;5061857;28;20055;-75
2024/02/29 10:17:56;;;;;;;16.40;6.00;;;8.30;99.90;;;;;;5058724;28;20490;-75
2024/02/29 10:20:22;;;;;;;16.80;7.40;;;8.30;99.90;;;;;;5066272;28;20039;-74
2024/02/29 10:22:54;;;;;;;19.15;7.18;;;8.30;99.90;;;;;;5045897;28;20044;-74
2024/02/29 10:25:21;;;;;;;18.85;6.43;;;8.30;99.90;;;;;;5057574;28;20040;-73
2024/02/29 10:27:47;;;;;;;21.42;6.10;;;8.30;99.90;;;;;;5060896;28;20172;-74
2024/02/29 10:30:15;;;;;;;20.35;7.43;;;8.30;99.90;;;;;;5046367;28;20040;-73
2024/02/29 10:32:42;;;;;;;14.88;6.60;;;8.30;99.90;;;;;;5048226;28;20129;-73
2024/02/29 10:35:27;;;;;;;13.20;5.97;;;8.30;99.90;;;;;;5029391;28;20036;-73
2024/02/29 10:37:54;;;;;;;12.90;5.85;;;8.40;99.90;;;;;;5025388;28;20043;-72
2024/02/29 10:40:20;;;;;;;14.95;5.55;;;8.30;99.90;;;;;;5046537;28;20090;-72
2024/02/29 10:42:55;;;;;;;13.40;5.57;;;8.40;99.90;;;;;;5044541;28;20060;-71
2024/02/29 10:45:23;;;;;;;16.58;5.70;;;8.40;99.90;;;;;;5042815;28;20386;-72
2024/02/29 10:48:08;;;;;;;12.77;6.30;;;8.30;99.90;;;;;;5038368;28;20036;-73
2024/02/29 10:50:46;;;;;;;15.98;6.78;;;8.40;99.90;;;;;;5036390;28;20038;-73
2024/02/29 10:53:37;;;;;;;19.10;7.15;;;8.30;99.90;;;;;;5023162;28;20099;-73
2024/02/29 10:56:12;;;;;;;14.45;6.22;;;8.40;99.90;;;;;;5037465;28;20389;-73
2024/02/29 10:58:42;;;;;;;15.10;5.88;;;8.40;99.90;;;;;;5037295;28;20103;-73
2024/02/29 11:01:08;;;;;;;20.65;6.78;;;8.40;99.90;;;;;;5035047;28;20040;-75
2024/02/29 11:03:34;;;;;;;14.85;6.28;;;8.40;99.90;;;;;;5026243;28;20033;-74
2024/02/29 11:06:02;;;;;;;12.55;6.03;;;8.50;99.90;;;;;;5025694;28;20036;-73
2024/02/29 11:08:28;;;;;;;13.25;6.40;;;8.50;99.90;;;;;;5040937;28;20502;-73
2024/02/29 11:10:55;;;;;;;13.00;6.25;;;8.50;99.90;;;;;;5039150;28;20120;-74
2024/02/29 11:13:21;;;;;;;12.85;6.18;;;8.50;99.90;;;;;;5042038;28;20033;-75
2024/02/29 11:15:50;;;;;;;16.23;6.20;;;8.50;99.90;;;;;;5044785;28;20120;-74
2024/02/29 11:18:23;;;;;;;14.07;5.90;;;8.60;99.90;;;;;;5040452;28;20037;-74
2024/02/29 11:21:03;;;;;;;11.10;5.32;;;8.60;99.90;;;;;;5038855;28;20033;-73
2024/02/29 11:23:33;;;;;;;12.15;4.85;;;8.60;99.90;;;;;;5042855;28;20061;-73
2024/02/29 11:26:00;;;;;;;11.40;4.78;;;8.60;99.90;;;;;;5028901;28;20036;-73
2024/02/29 11:28:52;;;;;;;9.15;4.93;;;8.60;99.90;;;;;;5048226;28;20033;-74
2024/02/29 11:31:18;;;;;;;11.00;4.90;;;8.60;99.90;;;;;;5038721;28;20060;-73
2024/02/29 11:33:48;;;;;;;10.30;4.32;;;8.60;99.90;;;;;;5047302;28;20489;-73
2024/02/29 11:36:13;;;;;;;11.82;4.78;;;8.60;99.90;;;;;;5055771;28;20027;-73
2024/02/29 11:38:40;;;;;;;11.32;5.13;;;8.60;99.90;;;;;;5046918;28;20396;-72
2024/02/29 11:41:18;;;;;;;12.00;4.65;;;8.60;99.90;;;;;;5046246;28;20032;-73
2024/02/29 11:43:44;;;;;;;9.93;4.22;;;8.70;99.90;;;;;;5040973;28;20115;-74
2024/02/29 11:46:10;;;;;;;11.10;5.38;;;8.60;99.90;;;;;;5056166;28;20043;-74
2024/02/29 11:48:39;;;;;;;13.30;4.78;;;8.60;99.90;;;;;;5037837;28;20071;-75
2024/02/29 11:51:08;;;;;;;14.70;5.20;;;8.70;99.90;;;;;;5055175;28;20029;-74
2024/02/29 11:53:36;;;;;;;13.85;5.70;;;8.70;99.90;;;;;;5055199;28;20058;-75
2024/02/29 11:56:02;;;;;;;11.25;4.47;;;8.70;99.90;;;;;;5047906;28;20609;-74
2024/02/29 11:58:28;;;;;;;12.27;5.30;;;8.70;99.90;;;;;;5047238;28;20505;-74
2024/02/29 12:00:54;;;;;;;11.10;5.88;;;8.70;99.90;;;;;;5060419;28;20045;-73
2024/02/29 12:03:20;;;;;;;17.17;5.68;;;8.70;99.90;;;;;;5047723;28;20029;-74
2024/02/29 12:05:46;;;;;;;12.90;5.18;;;8.70;99.90;;;;;;5060413;28;20148;-75
2024/02/29 12:08:12;;;;;;;10.40;4.90;;;8.80;99.90;;;;;;5059710;28;20056;-72
2024/02/29 12:10:38;;;;;;;13.43;5.20;;;8.80;99.90;;;;;;5059718;28;20025;-73
2024/02/29 12:13:06;;;;;;;11.07;4.80;;;8.80;99.90;;;;;;5060118;28;20122;-73
2024/02/29 12:15:34;;;;;;;9.07;4.30;;;8.80;99.90;;;;;;5060599;28;20032;-73
2024/02/29 12:17:59;;;;;;;11.18;4.82;;;8.80;99.90;;;;;;5061487;28;20037;-75
2024/02/29 12:20:25;;;;;;;12.10;5.35;;;8.80;99.90;;;;;;5059067;28;20523;-74
2024/02/29 12:22:58;;;;;;;12.48;5.15;;;8.80;99.90;;;;;;5058200;28;20645;-74
2024/02/29 12:25:25;;;;;;;13.63;5.55;;;8.90;99.90;;;;;;5039627;28;21668;-74
2024/02/29 12:27:51;;;;;;;10.20;4.57;;;8.90;99.90;;;;;;5042613;28;20549;-74
2024/02/29 12:30:18;;;;;;;8.32;4.38;;;8.90;99.90;;;;;;5035936;28;20072;-73
2024/02/29 12:32:43;;;;;;;8.43;3.83;;;8.80;99.90;;;;;;5040795;28;20045;-74
2024/02/29 12:35:11;;;;;;;12.15;4.15;;;8.90;99.90;;;;;;5039206;28;20047;-75
2024/02/29 12:37:40;;;;;;;8.25;3.40;;;8.80;99.90;;;;;;5037954;28;20044;-73
2024/02/29 12:40:08;;;;;;;7.22;4.07;;;8.80;99.90;;;;;;5036307;28;20041;-73
2024/02/29 12:42:34;;;;;;;9.43;4.60;;;8.90;99.90;;;;;;5026113;28;20040;-73
2024/02/29 12:45:00;;;;;;;8.82;4.10;;;8.90;99.90;;;;;;5039422;28;20029;-75